Time;durP1;ratioP1;P1;durP2;ratioP2;P2;SDS_P1;SDS_P2;PMS_P1;PMS_P2;Temp;Humidity;BMP_temperature;BMP_pressure;BME280_temperature;BME280_humidity;BME280_pressure;Samples;Min_cycle;Max_cycle;Signal;HPM_P1;HPM_P2
2021/08/01 00:00:14;;;;;;;47.03;23.60;;;25.70;62.90;;;;;;5033836;28;20033;-59
2021/08/01 00:02:40;;;;;;;28.83;15.25;;;25.70;62.90;;;;;;5033858;28;20080;-60
2021/08/01 00:05:08;;;;;;;18.10;10.93;;;25.70;62.80;;;;;;5032861;28;20498;-59
2021/08/01 00:07:35;;;;;;;10.85;7.53;;;25.70;62.70;;;;;;5033566;28;20107;-59
2021/08/01 00:10:01;;;;;;;9.90;7.60;;;25.70;62.50;;;;;;5032042;28;20049;-60
2021/08/01 00:12:27;;;;;;;8.63;7.40;;;25.70;62.50;;;;;;5028846;28;20061;-59
2021/08/01 00:14:54;;;;;;;12.82;7.78;;;25.70;62.30;;;;;;5032456;28;20034;-59
2021/08/01 00:17:21;;;;;;;10.27;7.80;;;25.70;62.30;;;;;;5033017;28;20037;-60
2021/08/01 00:19:46;;;;;;;9.48;8.05;;;25.70;62.20;;;;;;5032846;28;20034;-59
2021/08/01 00:22:12;;;;;;;8.98;7.25;;;25.70;62.10;;;;;;5033392;28;20097;-59
2021/08/01 00:24:38;;;;;;;8.63;7.03;;;25.70;61.70;;;;;;5033035;28;20040;-59
2021/08/01 00:27:03;;;;;;;8.95;6.78;;;25.70;61.50;;;;;;5033303;28;20029;-59
2021/08/01 00:29:30;;;;;;;8.45;7.35;;;25.70;61.50;;;;;;5033309;28;20049;-59
2021/08/01 00:32:00;;;;;;;11.05;7.47;;;25.70;61.50;;;;;;5033534;28;20033;-59
2021/08/01 00:34:25;;;;;;;13.23;7.32;;;25.80;61.80;;;;;;5033368;28;20025;-59
2021/08/01 00:36:51;;;;;;;8.93;6.70;;;25.70;62.00;;;;;;5033122;28;20116;-58
2021/08/01 00:39:17;;;;;;;8.73;6.60;;;25.70;62.00;;;;;;5032106;28;20026;-59
2021/08/01 00:41:42;;;;;;;9.85;7.28;;;25.80;62.00;;;;;;5028569;28;20079;-59
2021/08/01 00:44:08;;;;;;;12.05;8.70;;;25.70;62.50;;;;;;5025476;28;20104;-59
2021/08/01 00:46:33;;;;;;;10.15;8.73;;;25.80;61.80;;;;;;5033105;28;20026;-59
2021/08/01 00:49:01;;;;;;;9.88;8.38;;;25.70;61.70;;;;;;5033014;28;20382;-59
2021/08/01 00:51:31;;;;;;;8.93;7.57;;;25.70;61.70;;;;;;5033036;28;20028;-59
2021/08/01 00:53:58;;;;;;;10.23;6.90;;;25.70;61.70;;;;;;5033118;28;20028;-59
2021/08/01 00:56:24;;;;;;;8.25;6.53;;;25.70;61.60;;;;;;5032966;28;20026;-58
2021/08/01 00:58:49;;;;;;;7.82;6.68;;;25.80;61.80;;;;;;5032659;28;20022;-60
2021/08/01 01:01:19;;;;;;;8.02;6.53;;;25.70;61.50;;;;;;5032299;28;20053;-58
2021/08/01 01:03:50;;;;;;;8.45;6.35;;;25.70;61.50;;;;;;5033043;28;20109;-59
2021/08/01 01:06:40;;;;;;;10.68;7.32;;;25.70;61.50;;;;;;5033079;28;20464;-59
2021/08/01 01:09:31;;;;;;;8.85;7.00;;;25.70;61.50;;;;;;5032883;28;20032;-59
2021/08/01 01:12:02;;;;;;;9.93;7.35;;;25.60;61.40;;;;;;5029144;28;20151;-59
2021/08/01 01:14:29;;;;;;;9.10;6.90;;;25.60;61.60;;;;;;5031484;28;20030;-60
2021/08/01 01:16:59;;;;;;;8.52;6.93;;;25.60;61.70;;;;;;5031927;28;20025;-59
2021/08/01 01:20:00;;;;;;;9.77;7.13;;;25.60;61.40;;;;;;5032775;28;20029;-59
2021/08/01 01:23:03;;;;;;;8.65;7.13;;;25.50;61.20;;;;;;5032871;28;20029;-59
2021/08/01 01:25:41;;;;;;;10.20;7.38;;;25.50;61.10;;;;;;5032684;28;20030;-59
2021/08/01 01:28:32;;;;;;;9.57;6.68;;;25.50;60.90;;;;;;5032739;28;20029;-59
2021/08/01 01:31:23;;;;;;;10.15;7.43;;;25.50;60.90;;;;;;5031686;28;20045;-60
2021/08/01 01:34:10;;;;;;;8.98;7.28;;;25.50;60.80;;;;;;5032966;28;20037;-59
2021/08/01 01:36:39;;;;;;;11.18;8.05;;;25.40;60.60;;;;;;5033878;28;20032;-60
2021/08/01 01:39:06;;;;;;;26.35;14.18;;;25.40;60.60;;;;;;5036143;28;20029;-60
2021/08/01 01:41:33;;;;;;;51.13;24.00;;;25.40;60.50;;;;;;5022656;28;20026;-58
2021/08/01 01:44:00;;;;;;;41.08;18.48;;;25.40;60.50;;;;;;5029652;28;20056;-59
2021/08/01 01:46:27;;;;;;;32.35;17.27;;;25.40;60.90;;;;;;5036338;28;20040;-59
2021/08/01 01:48:55;;;;;;;50.33;24.25;;;25.40;61.10;;;;;;5036486;28;20386;-59
2021/08/01 01:51:21;;;;;;;50.45;25.48;;;25.40;61.20;;;;;;5036354;28;20222;-60
2021/08/01 01:53:48;;;;;;;65.13;32.78;;;25.30;61.10;;;;;;5036167;28;20032;-59
2021/08/01 01:56:14;;;;;;;69.75;30.80;;;25.30;61.00;;;;;;5036376;28;20436;-59
2021/08/01 01:58:40;;;;;;;64.22;29.05;;;25.30;61.10;;;;;;5035979;28;20067;-59
2021/08/01 02:01:06;;;;;;;56.63;27.75;;;25.30;61.10;;;;;;5036223;28;20156;-60
2021/08/01 02:03:33;;;;;;;50.90;24.45;;;25.30;61.10;;;;;;5036103;28;20445;-60
2021/08/01 02:05:59;;;;;;;40.53;22.40;;;25.20;61.30;;;;;;5035954;28;20035;-60
2021/08/01 02:08:28;;;;;;;38.20;21.83;;;25.30;61.50;;;;;;5034904;28;20021;-60
2021/08/01 02:10:59;;;;;;;31.02;18.95;;;25.20;61.50;;;;;;5034495;28;20028;-60
2021/08/01 02:13:35;;;;;;;20.85;13.25;;;25.20;61.50;;;;;;5034792;28;20025;-58
2021/08/01 02:16:03;;;;;;;16.35;10.38;;;25.20;61.60;;;;;;5035751;28;20508;-60
2021/08/01 02:18:45;;;;;;;14.35;9.23;;;25.20;61.60;;;;;;5015836;28;20088;-59
2021/08/01 02:21:11;;;;;;;14.07;11.02;;;25.20;61.60;;;;;;5016004;28;20237;-60
2021/08/01 02:23:45;;;;;;;16.20;10.93;;;25.20;61.60;;;;;;5015649;28;20084;-60
2021/08/01 02:26:16;;;;;;;13.05;10.98;;;25.20;61.50;;;;;;5015782;28;20026;-58
2021/08/01 02:28:42;;;;;;;15.63;10.88;;;25.20;61.70;;;;;;5015822;28;20030;-59
2021/08/01 02:31:10;;;;;;;15.63;11.32;;;25.20;61.80;;;;;;5015683;28;20200;-60
2021/08/01 02:33:36;;;;;;;14.13;11.45;;;25.20;61.60;;;;;;5015839;28;20026;-59
2021/08/01 02:36:06;;;;;;;16.23;10.52;;;25.20;61.70;;;;;;5015844;28;20246;-60
2021/08/01 02:38:34;;;;;;;19.65;13.05;;;25.20;61.70;;;;;;5017128;28;20036;-60
2021/08/01 02:41:04;;;;;;;24.38;16.40;;;25.20;61.80;;;;;;5032232;28;20143;-59
2021/08/01 02:43:32;;;;;;;25.38;15.60;;;25.20;62.30;;;;;;5033513;28;20386;-59
2021/08/01 02:45:58;;;;;;;24.67;16.38;;;25.20;61.70;;;;;;5035325;28;20083;-59
2021/08/01 02:48:25;;;;;;;24.17;14.70;;;25.20;61.70;;;;;;5034199;28;20033;-60
2021/08/01 02:50:58;;;;;;;24.88;14.80;;;25.20;61.60;;;;;;5035071;28;20033;-59
2021/08/01 02:53:26;;;;;;;18.00;12.55;;;25.20;61.60;;;;;;5035098;28;20033;-59
2021/08/01 02:55:54;;;;;;;16.00;11.85;;;25.20;61.40;;;;;;5034965;28;20038;-59
2021/08/01 02:58:20;;;;;;;15.65;12.13;;;25.20;61.40;;;;;;5034958;28;20025;-59
2021/08/01 03:00:47;;;;;;;15.65;11.02;;;25.30;61.40;;;;;;5035240;28;20104;-59
2021/08/01 03:03:15;;;;;;;12.57;10.35;;;25.30;61.40;;;;;;5034873;28;20024;-59
2021/08/01 03:05:44;;;;;;;12.80;9.93;;;25.30;61.30;;;;;;5034885;28;20093;-59
2021/08/01 03:08:13;;;;;;;12.20;9.65;;;25.30;61.20;;;;;;5034408;28;20588;-59
2021/08/01 03:10:46;;;;;;;12.23;8.45;;;25.40;61.30;;;;;;5028219;28;20034;-58
2021/08/01 03:13:13;;;;;;;12.15;8.98;;;25.40;61.20;;;;;;5033206;28;20064;-58
2021/08/01 03:15:39;;;;;;;10.68;8.50;;;25.40;61.10;;;;;;5034696;28;20025;-59
2021/08/01 03:18:05;;;;;;;10.65;9.02;;;25.50;61.20;;;;;;5034477;28;20065;-60
2021/08/01 03:20:31;;;;;;;9.93;7.90;;;25.50;61.20;;;;;;5033452;28;20033;-60
2021/08/01 03:22:57;;;;;;;9.93;8.77;;;25.60;61.20;;;;;;5033925;28;20045;-60
2021/08/01 03:25:22;;;;;;;11.35;8.80;;;25.60;61.20;;;;;;5034561;28;20033;-60
2021/08/01 03:27:48;;;;;;;13.15;9.30;;;25.70;61.30;;;;;;5034434;28;20504;-60
2021/08/01 03:30:14;;;;;;;12.23;10.73;;;25.70;61.40;;;;;;5034331;28;20087;-60
2021/08/01 03:32:39;;;;;;;11.05;8.95;;;25.80;61.40;;;;;;5034700;28;20030;-60
2021/08/01 03:35:05;;;;;;;10.90;9.05;;;25.90;61.50;;;;;;5034268;28;20029;-61
2021/08/01 03:37:31;;;;;;;13.10;9.38;;;26.10;61.50;;;;;;5034182;28;20030;-60
2021/08/01 03:39:57;;;;;;;10.45;9.20;;;26.20;61.50;;;;;;5032678;28;20029;-60
2021/08/01 03:42:22;;;;;;;12.55;10.48;;;26.40;61.50;;;;;;5027349;28;20496;-60
2021/08/01 03:44:48;;;;;;;12.90;9.98;;;26.50;61.50;;;;;;5031816;28;20025;-60
2021/08/01 03:47:14;;;;;;;11.07;9.85;;;26.70;61.50;;;;;;5034021;28;20497;-61
2021/08/01 03:49:43;;;;;;;10.32;9.32;;;26.80;61.30;;;;;;5034065;28;20485;-61
2021/08/01 03:52:09;;;;;;;14.93;10.75;;;27.00;61.20;;;;;;5034320;28;20469;-61
2021/08/01 03:54:35;;;;;;;14.45;11.77;;;27.10;61.00;;;;;;5033323;28;20021;-62
2021/08/01 03:57:01;;;;;;;12.73;11.25;;;27.20;60.70;;;;;;5033685;28;20042;-62
2021/08/01 03:59:26;;;;;;;14.27;10.40;;;27.30;60.50;;;;;;5033583;28;20478;-62
2021/08/01 04:01:52;;;;;;;13.63;10.30;;;27.50;60.40;;;;;;5033821;28;20017;-62
2021/08/01 04:04:17;;;;;;;13.23;9.25;;;27.60;60.20;;;;;;5033804;28;20108;-62
2021/08/01 04:06:43;;;;;;;12.98;9.88;;;27.70;60.00;;;;;;5033646;28;20021;-62
2021/08/01 04:09:09;;;;;;;12.07;8.70;;;27.90;59.70;;;;;;5032670;28;20401;-62
2021/08/01 04:11:37;;;;;;;11.05;9.32;;;28.40;59.70;;;;;;5025333;28;20022;-61
2021/08/01 04:14:03;;;;;;;12.80;9.32;;;28.90;59.40;;;;;;5032251;28;20027;-61
2021/08/01 04:16:28;;;;;;;10.38;7.90;;;29.60;58.70;;;;;;5033532;28;20021;-61
2021/08/01 04:18:54;;;;;;;9.63;7.90;;;30.40;57.80;;;;;;5037163;28;20094;-60
2021/08/01 04:21:19;;;;;;;11.40;7.95;;;31.20;56.50;;;;;;5038488;28;20193;-60
2021/08/01 04:23:45;;;;;;;11.90;7.72;;;32.10;55.30;;;;;;5033297;28;20042;-61
2021/08/01 04:26:11;;;;;;;11.70;8.20;;;33.00;53.90;;;;;;5033379;28;20022;-61
2021/08/01 04:28:37;;;;;;;9.85;7.70;;;33.60;52.30;;;;;;5033966;28;20055;-61
2021/08/01 04:31:03;;;;;;;12.10;7.88;;;34.00;51.60;;;;;;5033266;28;20028;-61
2021/08/01 04:33:28;;;;;;;9.77;7.07;;;34.00;50.80;;;;;;5032713;28;20032;-61
2021/08/01 04:35:54;;;;;;;9.70;7.25;;;34.00;50.70;;;;;;5027001;28;20034;-61
2021/08/01 04:38:20;;;;;;;8.50;7.53;;;34.40;50.40;;;;;;5024266;28;20053;-61
2021/08/01 04:40:46;;;;;;;10.50;7.43;;;34.70;49.60;;;;;;5025919;28;20383;-61
2021/08/01 04:43:12;;;;;;;8.93;8.05;;;35.00;49.20;;;;;;5031998;28;20370;-61
2021/08/01 04:45:37;;;;;;;10.95;8.65;;;35.20;48.80;;;;;;5032007;28;20447;-61
2021/08/01 04:48:04;;;;;;;11.93;9.20;;;35.30;48.40;;;;;;5033084;28;20531;-61
2021/08/01 04:50:30;;;;;;;12.02;10.20;;;35.40;48.20;;;;;;5033056;28;20088;-60
2021/08/01 04:52:55;;;;;;;11.23;9.48;;;35.60;48.70;;;;;;5032942;28;20029;-61
2021/08/01 04:55:21;;;;;;;11.73;9.93;;;35.90;47.90;;;;;;5033055;28;20029;-61
2021/08/01 04:57:47;;;;;;;11.82;9.57;;;36.40;47.60;;;;;;5032878;28;20032;-60
2021/08/01 05:00:14;;;;;;;12.77;10.05;;;36.80;47.30;;;;;;5021845;28;20029;-60
2021/08/01 05:02:40;;;;;;;13.68;9.82;;;37.40;47.10;;;;;;5013474;28;20397;-58
2021/08/01 05:05:06;;;;;;;12.77;10.00;;;37.80;46.30;;;;;;5013175;28;20029;-58
2021/08/01 05:07:31;;;;;;;11.45;10.27;;;38.40;45.60;;;;;;5013117;28;20199;-58
2021/08/01 05:09:59;;;;;;;11.80;9.48;;;38.80;45.00;;;;;;5024349;28;20049;-58
2021/08/01 05:12:25;;;;;;;10.75;9.52;;;39.20;44.60;;;;;;5033471;28;20036;-58
2021/08/01 05:14:51;;;;;;;9.75;8.75;;;39.50;44.20;;;;;;5034584;28;20482;-60
2021/08/01 05:17:17;;;;;;;10.25;8.93;;;39.50;43.70;;;;;;5017441;28;20025;-61
2021/08/01 05:19:43;;;;;;;12.57;8.68;;;39.40;43.60;;;;;;5030827;28;20029;-61
2021/08/01 05:22:10;;;;;;;11.80;8.60;;;39.00;43.80;;;;;;5035991;28;20025;-61
2021/08/01 05:24:36;;;;;;;13.00;8.20;;;38.70;44.50;;;;;;5035697;28;20050;-61
2021/08/01 05:27:02;;;;;;;11.35;8.77;;;38.60;44.80;;;;;;5035884;28;20041;-61
2021/08/01 05:29:28;;;;;;;10.18;8.75;;;38.70;45.30;;;;;;5036011;28;20025;-61
2021/08/01 05:31:54;;;;;;;11.18;8.95;;;38.90;44.80;;;;;;5035974;28;20500;-61
2021/08/01 05:34:20;;;;;;;11.43;9.25;;;39.00;44.50;;;;;;5036950;28;20045;-61
2021/08/01 05:36:46;;;;;;;11.23;10.13;;;39.00;44.40;;;;;;5036470;28;20017;-61
2021/08/01 05:39:12;;;;;;;13.43;10.60;;;38.80;44.70;;;;;;5035806;28;20025;-61
2021/08/01 05:41:38;;;;;;;11.68;10.15;;;38.50;45.10;;;;;;5020958;28;20025;-61
2021/08/01 05:44:04;;;;;;;12.52;10.00;;;38.10;45.40;;;;;;5027618;28;20033;-61
2021/08/01 05:46:30;;;;;;;13.35;11.18;;;37.70;45.70;;;;;;5036140;28;20027;-61
2021/08/01 05:48:55;;;;;;;12.55;9.50;;;37.30;46.20;;;;;;5035757;28;20543;-61
2021/08/01 05:51:21;;;;;;;11.02;9.52;;;36.90;46.30;;;;;;5034748;28;20033;-61
2021/08/01 05:53:47;;;;;;;14.00;11.15;;;36.60;47.00;;;;;;5036317;28;20075;-61
2021/08/01 05:56:13;;;;;;;11.77;10.57;;;36.20;47.50;;;;;;5036275;28;20116;-61
2021/08/01 05:58:40;;;;;;;14.45;9.55;;;35.90;47.60;;;;;;5036088;28;20032;-61
2021/08/01 06:01:07;;;;;;;12.68;9.77;;;35.50;47.80;;;;;;5036025;28;20026;-61
2021/08/01 06:03:33;;;;;;;16.40;10.90;;;35.10;48.30;;;;;;5035694;28;20029;-61
2021/08/01 06:06:10;;;;;;;17.20;11.18;;;34.90;48.90;;;;;;5036142;28;20017;-61
2021/08/01 06:08:36;;;;;;;20.35;12.70;;;34.60;49.40;;;;;;5036065;28;20078;-61
2021/08/01 06:11:04;;;;;;;20.30;13.77;;;34.40;49.80;;;;;;5028757;28;20029;-61
2021/08/01 06:13:30;;;;;;;20.00;14.82;;;34.20;50.50;;;;;;5028869;28;20029;-61
2021/08/01 06:15:55;;;;;;;27.95;16.48;;;34.10;50.90;;;;;;5035780;28;20037;-61
2021/08/01 06:18:21;;;;;;;31.90;16.65;;;34.00;51.00;;;;;;5035613;28;20048;-61
2021/08/01 06:20:47;;;;;;;29.38;17.50;;;33.90;51.10;;;;;;5034653;28;20041;-61
2021/08/01 06:23:12;;;;;;;29.85;17.90;;;33.80;51.50;;;;;;5033910;28;20060;-61
2021/08/01 06:25:38;;;;;;;24.00;14.40;;;33.60;52.10;;;;;;5035581;28;20025;-61
2021/08/01 06:28:05;;;;;;;21.95;13.52;;;33.60;52.00;;;;;;5035835;28;20029;-61
2021/08/01 06:30:31;;;;;;;22.73;13.90;;;33.60;52.20;;;;;;5036100;28;20457;-61
2021/08/01 06:32:56;;;;;;;22.00;12.82;;;33.40;52.30;;;;;;5035471;28;20061;-61
2021/08/01 06:35:22;;;;;;;22.67;13.80;;;33.40;52.50;;;;;;5035477;28;20053;-61
2021/08/01 06:37:48;;;;;;;27.95;16.35;;;33.30;52.60;;;;;;5034895;28;20035;-61
2021/08/01 06:40:16;;;;;;;25.42;16.48;;;33.20;52.60;;;;;;5025867;28;20026;-61
2021/08/01 06:42:42;;;;;;;24.33;15.27;;;33.10;52.60;;;;;;5022339;28;20364;-61
2021/08/01 06:45:08;;;;;;;32.63;15.38;;;33.00;52.60;;;;;;5035048;28;20049;-61
2021/08/01 06:47:34;;;;;;;26.67;14.18;;;33.00;52.90;;;;;;5035085;28;20025;-63
2021/08/01 06:50:00;;;;;;;22.77;12.82;;;32.90;53.00;;;;;;5035529;28;20099;-61
2021/08/01 06:52:25;;;;;;;23.30;13.05;;;32.80;52.80;;;;;;5035096;28;20034;-61
2021/08/01 06:54:51;;;;;;;23.98;13.23;;;32.70;52.80;;;;;;5034190;28;20026;-61
2021/08/01 06:57:17;;;;;;;26.48;13.50;;;32.60;53.20;;;;;;5034444;28;20045;-61
2021/08/01 06:59:42;;;;;;;23.23;13.02;;;32.60;53.20;;;;;;5034268;28;20053;-61
2021/08/01 07:02:08;;;;;;;27.10;13.27;;;32.60;53.90;;;;;;5027274;28;20033;-61
2021/08/01 07:04:34;;;;;;;24.70;12.50;;;32.50;52.60;;;;;;5028699;28;20017;-61
2021/08/01 07:07:00;;;;;;;29.90;12.98;;;32.40;52.90;;;;;;5028110;28;20462;-61
2021/08/01 07:09:25;;;;;;;31.20;12.27;;;32.40;53.00;;;;;;5034128;28;20029;-61
2021/08/01 07:11:52;;;;;;;20.25;10.25;;;32.40;53.20;;;;;;5034513;28;20032;-61
2021/08/01 07:14:17;;;;;;;16.42;10.10;;;32.30;53.90;;;;;;5031176;28;20357;-62
2021/08/01 07:16:44;;;;;;;22.08;9.82;;;32.30;53.40;;;;;;5034529;28;20037;-61
2021/08/01 07:19:10;;;;;;;21.42;10.68;;;32.30;53.40;;;;;;5034331;28;20057;-61
2021/08/01 07:21:36;;;;;;;19.52;10.27;;;32.30;53.20;;;;;;5014871;28;20018;-61
2021/08/01 07:24:02;;;;;;;15.13;8.52;;;32.20;52.90;;;;;;5021285;28;20543;-61
2021/08/01 07:26:27;;;;;;;18.13;8.38;;;32.20;52.60;;;;;;5034443;28;20028;-61
2021/08/01 07:28:53;;;;;;;16.08;8.35;;;32.10;52.90;;;;;;5034335;28;20032;-61
2021/08/01 07:31:18;;;;;;;24.63;8.73;;;32.10;53.00;;;;;;5034368;28;20029;-61
2021/08/01 07:33:44;;;;;;;14.88;8.50;;;32.10;53.40;;;;;;5033621;28;20033;-61
2021/08/01 07:36:10;;;;;;;13.95;8.75;;;32.10;53.60;;;;;;5019357;28;20512;-61
2021/08/01 07:38:35;;;;;;;9.95;7.53;;;32.10;53.40;;;;;;5023909;28;20152;-61
2021/08/01 07:41:01;;;;;;;11.07;6.25;;;32.10;53.20;;;;;;5032850;28;20030;-61
2021/08/01 07:43:27;;;;;;;11.10;7.18;;;32.10;53.20;;;;;;5029711;28;20033;-61
2021/08/01 07:45:52;;;;;;;10.82;6.40;;;32.10;53.00;;;;;;5034077;28;20480;-61
2021/08/01 07:48:18;;;;;;;12.57;6.38;;;32.10;53.20;;;;;;5034212;28;20025;-61
2021/08/01 07:50:44;;;;;;;13.32;8.15;;;32.10;53.20;;;;;;5033990;28;20029;-61
2021/08/01 07:53:10;;;;;;;11.90;7.18;;;32.10;53.30;;;;;;5033936;28;20026;-61
2021/08/01 07:55:37;;;;;;;7.30;6.38;;;32.10;53.40;;;;;;5033969;28;20028;-61
2021/08/01 07:58:03;;;;;;;8.90;6.22;;;32.10;53.40;;;;;;5034052;28;20022;-61
2021/08/01 08:00:29;;;;;;;10.18;7.15;;;32.10;53.20;;;;;;5033801;28;20052;-61
2021/08/01 08:02:54;;;;;;;7.47;5.53;;;32.10;52.80;;;;;;5033689;28;20017;-61
2021/08/01 08:05:20;;;;;;;7.28;6.30;;;32.10;52.50;;;;;;5033763;28;20037;-61
2021/08/01 08:07:46;;;;;;;9.27;5.97;;;32.10;52.30;;;;;;5029942;28;20025;-61
2021/08/01 08:10:11;;;;;;;6.97;6.00;;;32.10;52.10;;;;;;5028441;28;20025;-61
2021/08/01 08:12:37;;;;;;;6.57;5.97;;;32.10;51.90;;;;;;5032097;28;20029;-61
2021/08/01 08:15:06;;;;;;;8.93;5.97;;;32.00;51.80;;;;;;5033580;28;20108;-61
2021/08/01 08:17:33;;;;;;;6.90;5.78;;;32.00;51.90;;;;;;5033738;28;20025;-61
2021/08/01 08:20:00;;;;;;;8.57;5.93;;;32.00;52.60;;;;;;5033399;28;20026;-61
2021/08/01 08:22:26;;;;;;;6.88;5.80;;;32.00;51.80;;;;;;5033359;28;20100;-61
2021/08/01 08:24:51;;;;;;;6.53;5.88;;;32.00;51.90;;;;;;5033291;28;20029;-61
2021/08/01 08:27:17;;;;;;;8.43;6.03;;;32.00;51.90;;;;;;5033332;28;20057;-61
2021/08/01 08:29:42;;;;;;;6.35;5.75;;;32.00;51.90;;;;;;5021972;28;20433;-61
2021/08/01 08:32:08;;;;;;;8.40;6.38;;;32.00;51.70;;;;;;5013544;28;20438;-61
2021/08/01 08:34:35;;;;;;;9.82;6.28;;;32.00;51.50;;;;;;5013506;28;20030;-61
2021/08/01 08:37:00;;;;;;;6.95;5.78;;;32.00;51.40;;;;;;5013296;28;20030;-61
2021/08/01 08:39:27;;;;;;;7.93;6.22;;;32.00;51.40;;;;;;5022692;28;20027;-61
2021/08/01 08:41:57;;;;;;;6.55;5.63;;;32.00;51.50;;;;;;5038091;28;20021;-61
2021/08/01 08:44:22;;;;;;;7.85;6.57;;;32.00;51.30;;;;;;5032591;28;20596;-61
2021/08/01 08:46:49;;;;;;;6.25;5.65;;;32.00;51.40;;;;;;5032832;28;20026;-61
2021/08/01 08:49:15;;;;;;;7.00;5.68;;;32.00;51.10;;;;;;5031834;28;20018;-61
2021/08/01 08:51:44;;;;;;;7.85;5.50;;;31.90;51.10;;;;;;5032709;28;20473;-61
2021/08/01 08:54:19;;;;;;;7.25;5.60;;;32.00;51.10;;;;;;5032995;28;20461;-61
2021/08/01 08:56:47;;;;;;;8.88;6.07;;;32.00;51.40;;;;;;5033042;28;20451;-61
2021/08/01 08:59:17;;;;;;;7.00;5.82;;;31.90;51.20;;;;;;5025037;28;20026;-61
2021/08/01 09:01:43;;;;;;;7.70;5.80;;;31.90;50.90;;;;;;5013130;28;20022;-61
2021/08/01 09:04:10;;;;;;;8.65;5.78;;;31.90;51.30;;;;;;5013427;28;20029;-61
2021/08/01 09:06:36;;;;;;;5.68;5.18;;;31.80;51.10;;;;;;5013159;28;20030;-61
2021/08/01 09:09:02;;;;;;;6.25;5.65;;;31.90;51.30;;;;;;5019279;28;20472;-61
2021/08/01 09:11:28;;;;;;;6.60;5.90;;;31.90;51.20;;;;;;5031841;28;20037;-61
2021/08/01 09:13:56;;;;;;;11.00;6.00;;;31.80;51.30;;;;;;5031814;28;20033;-61
2021/08/01 09:16:39;;;;;;;9.13;6.28;;;31.80;51.30;;;;;;5032751;28;20455;-61
2021/08/01 09:19:43;;;;;;;8.15;6.22;;;31.70;51.60;;;;;;5032696;28;20049;-61
2021/08/01 09:22:17;;;;;;;7.03;6.32;;;31.80;52.20;;;;;;5033198;28;20022;-61
2021/08/01 09:24:48;;;;;;;8.20;6.35;;;31.70;51.90;;;;;;5031924;28;20038;-61
2021/08/01 09:27:31;;;;;;;7.07;6.28;;;31.70;51.70;;;;;;5032729;28;20026;-61
2021/08/01 09:29:57;;;;;;;7.68;5.70;;;31.70;51.90;;;;;;5027734;28;20105;-60
2021/08/01 09:32:25;;;;;;;7.07;5.82;;;31.60;52.00;;;;;;5024989;28;20034;-61
2021/08/01 09:34:50;;;;;;;7.93;6.35;;;31.70;52.00;;;;;;5032884;28;20543;-60
2021/08/01 09:37:29;;;;;;;9.27;6.10;;;31.60;52.20;;;;;;5032671;28;20037;-60
2021/08/01 09:40:15;;;;;;;11.27;6.10;;;31.70;52.20;;;;;;5032644;28;20021;-61
2021/08/01 09:42:45;;;;;;;11.32;6.80;;;31.70;52.00;;;;;;5027125;28;20042;-61
2021/08/01 09:45:19;;;;;;;7.75;5.75;;;31.60;51.70;;;;;;5013051;28;20022;-61
2021/08/01 09:47:46;;;;;;;7.78;5.40;;;31.60;51.50;;;;;;5021943;28;20036;-61
2021/08/01 09:50:13;;;;;;;7.57;5.72;;;31.60;51.30;;;;;;5032511;28;20026;-61
2021/08/01 09:52:39;;;;;;;8.45;5.97;;;31.60;51.40;;;;;;5032323;28;20477;-61
2021/08/01 09:55:05;;;;;;;8.05;5.70;;;31.50;51.70;;;;;;5030260;28;20030;-61
2021/08/01 09:57:31;;;;;;;8.38;5.97;;;31.60;51.20;;;;;;5033881;28;20573;-61
2021/08/01 10:00:10;;;;;;;8.40;5.85;;;31.50;51.10;;;;;;5020793;28;20093;-61
2021/08/01 10:02:39;;;;;;;6.75;6.00;;;31.50;51.70;;;;;;5016526;28;20478;-60
2021/08/01 10:05:15;;;;;;;6.82;5.45;;;31.50;51.10;;;;;;5016128;28;20021;-61
2021/08/01 10:07:45;;;;;;;6.55;5.22;;;31.50;51.50;;;;;;5029223;28;20037;-61
2021/08/01 10:10:27;;;;;;;6.57;5.57;;;31.50;51.40;;;;;;5036095;28;20029;-59
2021/08/01 10:12:59;;;;;;;6.43;5.65;;;31.50;51.10;;;;;;5034546;28;20306;-59
2021/08/01 10:15:25;;;;;;;8.55;5.85;;;31.50;51.20;;;;;;5035357;28;20041;-60
2021/08/01 10:17:52;;;;;;;7.32;5.95;;;31.50;50.90;;;;;;5035110;28;20120;-60
2021/08/01 10:20:18;;;;;;;8.55;5.25;;;31.50;51.10;;;;;;5035749;28;20014;-60
2021/08/01 10:22:44;;;;;;;6.65;5.85;;;31.50;50.80;;;;;;5035619;28;20116;-60
2021/08/01 10:25:29;;;;;;;6.80;5.45;;;31.60;50.40;;;;;;5035555;28;20037;-60
2021/08/01 10:27:59;;;;;;;5.57;4.95;;;31.60;50.00;;;;;;5035571;28;20026;-60
2021/08/01 10:30:27;;;;;;;7.35;5.65;;;31.50;50.00;;;;;;5018706;28;20030;-60
2021/08/01 10:33:04;;;;;;;9.57;5.47;;;31.60;49.90;;;;;;5034044;28;20046;-59
2021/08/01 10:35:33;;;;;;;8.05;4.95;;;31.60;49.90;;;;;;5033655;28;20026;-60
2021/08/01 10:38:03;;;;;;;6.43;4.97;;;31.60;50.00;;;;;;5034700;28;20025;-60
2021/08/01 10:40:35;;;;;;;8.43;5.47;;;31.60;49.60;;;;;;5035587;28;20025;-59
2021/08/01 10:43:06;;;;;;;6.95;5.18;;;31.70;49.70;;;;;;5033211;28;20030;-60
2021/08/01 10:45:32;;;;;;;7.07;5.63;;;31.70;49.80;;;;;;5034716;28;20377;-59
2021/08/01 10:47:59;;;;;;;5.88;4.90;;;31.70;50.20;;;;;;5035013;28;20478;-59
2021/08/01 10:50:28;;;;;;;6.70;5.70;;;31.80;50.20;;;;;;5035292;28;20040;-60
2021/08/01 10:53:29;;;;;;;10.68;5.78;;;31.80;50.20;;;;;;5035050;28;20025;-59
2021/08/01 10:56:07;;;;;;;6.90;5.70;;;31.80;50.30;;;;;;5035697;28;20029;-59
2021/08/01 10:58:40;;;;;;;8.40;5.75;;;31.80;50.30;;;;;;5031818;28;20037;-59
2021/08/01 11:01:08;;;;;;;17.77;6.38;;;31.70;50.50;;;;;;5027208;28;20030;-59
2021/08/01 11:03:35;;;;;;;9.27;5.78;;;31.70;50.80;;;;;;5034963;28;20117;-59
2021/08/01 11:06:02;;;;;;;7.30;5.93;;;31.70;51.00;;;;;;5034415;28;20044;-59
2021/08/01 11:08:28;;;;;;;7.78;6.05;;;31.70;51.00;;;;;;5033814;28;20088;-57
2021/08/01 11:11:09;;;;;;;7.93;5.70;;;31.60;51.10;;;;;;5034714;28;20080;-59
2021/08/01 11:13:39;;;;;;;7.05;5.35;;;31.60;51.00;;;;;;5033655;28;20029;-59
2021/08/01 11:16:08;;;;;;;6.55;5.22;;;31.60;50.60;;;;;;5034898;28;20105;-59
2021/08/01 11:18:38;;;;;;;6.95;5.30;;;31.60;50.00;;;;;;5034488;28;20069;-59
2021/08/01 11:21:05;;;;;;;6.47;5.20;;;31.50;49.80;;;;;;5032369;28;20036;-59
2021/08/01 11:23:46;;;;;;;8.55;5.13;;;31.50;49.60;;;;;;5033512;28;20045;-59
2021/08/01 11:26:13;;;;;;;8.00;5.63;;;31.60;49.70;;;;;;5034651;28;20037;-59
2021/08/01 11:28:41;;;;;;;6.60;5.05;;;31.50;49.90;;;;;;5028185;28;20030;-59
2021/08/01 11:31:14;;;;;;;6.47;5.22;;;31.50;50.20;;;;;;5024815;28;20477;-59
2021/08/01 11:33:44;;;;;;;6.78;5.97;;;31.50;50.60;;;;;;5034472;28;20497;-59
2021/08/01 11:36:09;;;;;;;;;;;31.50;50.80;;;;;;5034614;28;20025;-59
2021/08/01 11:38:35;;;;;;;7.05;5.82;;;31.40;51.00;;;;;;5034149;28;19909;-59
2021/08/01 11:41:01;;;;;;;6.63;5.85;;;31.40;51.00;;;;;;5033986;28;20068;-60
2021/08/01 11:43:27;;;;;;;8.18;5.50;;;31.50;51.10;;;;;;5028576;28;20056;-60
2021/08/01 11:46:03;;;;;;;7.38;5.68;;;31.50;51.20;;;;;;5034059;28;20029;-60
2021/08/01 11:48:30;;;;;;;6.68;5.97;;;31.40;51.00;;;;;;5033775;28;20183;-59
2021/08/01 11:50:57;;;;;;;6.82;5.85;;;31.40;51.40;;;;;;5034627;28;20033;-59
2021/08/01 11:53:28;;;;;;;7.85;6.20;;;31.40;51.60;;;;;;5034506;28;20032;-59
2021/08/01 11:56:00;;;;;;;;;;;31.40;51.40;;;;;;5033463;28;20036;-59
2021/08/01 11:58:29;;;;;;;7.38;5.55;;;31.40;51.50;;;;;;5029036;28;20003;-59
2021/08/01 12:00:56;;;;;;;8.00;5.60;;;31.30;51.40;;;;;;5014579;28;20029;-59
2021/08/01 12:03:27;;;;;;;7.50;5.57;;;31.30;51.50;;;;;;5014741;28;20030;-59
2021/08/01 12:05:52;;;;;;;7.43;6.00;;;31.30;51.30;;;;;;5026935;28;20022;-59
2021/08/01 12:08:31;;;;;;;7.10;5.32;;;31.30;51.20;;;;;;5032459;28;20486;-59
2021/08/01 12:11:12;;;;;;;5.75;5.20;;;31.30;50.90;;;;;;5033573;28;20037;-59
2021/08/01 12:13:37;;;;;;;5.90;5.30;;;31.30;50.60;;;;;;5032575;28;20101;-59
2021/08/01 12:16:15;;;;;;;6.32;5.38;;;31.30;50.40;;;;;;5033554;28;20155;-59
2021/08/01 12:18:41;;;;;;;6.18;5.57;;;31.30;50.50;;;;;;5033403;28;20064;-59
2021/08/01 12:21:27;;;;;;;9.23;5.70;;;31.30;50.40;;;;;;5033058;28;20065;-59
2021/08/01 12:23:52;;;;;;;7.63;5.60;;;31.30;50.40;;;;;;5033348;28;20486;-59
2021/08/01 12:26:40;;;;;;;6.78;5.65;;;31.20;50.60;;;;;;5033450;28;20030;-59
2021/08/01 12:29:07;;;;;;;8.30;6.15;;;31.20;50.50;;;;;;5026450;28;20029;-59
2021/08/01 12:31:33;;;;;;;6.63;5.50;;;31.20;50.70;;;;;;5013596;28;20029;-59
2021/08/01 12:33:59;;;;;;;6.20;5.60;;;31.20;51.10;;;;;;5013873;28;20053;-59
2021/08/01 12:36:28;;;;;;;5.00;4.45;;;31.10;50.40;;;;;;5020083;28;20388;-59
2021/08/01 12:38:55;;;;;;;7.10;5.30;;;31.10;49.80;;;;;;5027936;28;20029;-60
2021/08/01 12:41:22;;;;;;;7.97;5.20;;;31.10;49.40;;;;;;5032498;28;20109;-59
2021/08/01 12:43:48;;;;;;;5.90;5.30;;;31.10;49.50;;;;;;5027549;28;20033;-59